Moritz — AEEC — position and weather

sailwx.info

Track history (hours):
 
Tides and Currents Weather Stations Pressure Air Temp Water Temp Dewpoint Dewpoint Depression Visibility Wind Speed Wind Dir Waves Ship Positions

Moritz

Last reported at 2018-May-22 18:47 UTC. Time now 2018-May-22 19:36 UTC.
Position N 40°41' W 074°04'.

Length 18 m.

Type: Ship. MMSI: 366999444.

Date/timePositionNaut miles runAvg speedWind from/ knotsBaromVisibWave heightAir tempDewpointWater temp
2018-May-22 18:47N 40°41' W 074°04'1 3.1
2018-May-22 18:30N 40°40' W 074°04'2 3.6
2018-May-22 18:00N 40°39' W 074°02'2 0.6
2018-May-22 15:08N 40°40' W 074°00'1 9.6
2018-May-22 15:01N 40°40' W 074°02'2 4.0
2018-May-22 14:30N 40°41' W 074°04'0 0.0
2018-May-22 14:00N 40°41' W 074°04'4 7.1
2018-May-22 13:25N 40°37' W 074°03'2 4.3
2018-May-22 13:00N 40°36' W 074°01'2 4.3
2018-May-22 12:30N 40°37' W 074°03'4 7.7
2018-May-22 12:01N 40°41' W 074°04'0 0.0
2018-May-22 11:30N 40°41' W 074°04'0 0.0
2018-May-21 17:19N 40°41' W 074°04'0 0.0
2018-May-21 17:00N 40°41' W 074°04'0 0.0
2018-May-21 16:30N 40°41' W 074°04'0 0.0
2018-May-21 15:26N 40°41' W 074°04'1 3.4
2018-May-21 15:00N 40°40' W 074°04'2 3.9
2018-May-21 14:24N 40°37' W 074°03'3 6.9
2018-May-21 14:00N 40°40' W 074°01'2 4.1
2018-May-21 13:29N 40°38' W 074°03'2 3.1
2018-May-21 12:58N 40°36' W 074°02'0 0.6
2018-May-21 12:27N 40°36' W 074°03'4 9.5
2018-May-21 12:00N 40°40' W 074°03'1 1.9
2018-May-21 11:31N 40°41' W 074°04'  
2018-May-17 18:50N 40°41' W 074°04'0 1.1
2018-May-17 18:30N 40°41' W 074°04'0 0.1
2018-May-17 18:00N 40°41' W 074°04'3 0.9
2018-May-17 14:58N 40°40' W 074°00'3 5.6
2018-May-17 14:30N 40°41' W 074°04'0 0.4
2018-May-17 14:00N 40°41' W 074°04'3 5.8
2018-May-17 13:29N 40°39' W 074°07'1 1.4
2018-May-17 12:58N 40°39' W 074°08'4 7.6
2018-May-17 12:30N 40°41' W 074°04'1 1.1
2018-May-17 12:00N 40°41' W 074°04'0 0.0
2018-May-17 11:30N 40°41' W 074°04'0 0.0
2018-May-17 11:00N 40°41' W 074°04'0 0.0
2018-May-16 18:36N 40°41' W 074°04'1 7.7
2018-May-16 18:30N 40°41' W 074°03'611.3
2018-May-16 17:59N 40°46' W 074°01'2 2.4
2018-May-16 17:04N 40°48' W 073°59'2 6.9
2018-May-16 16:48N 40°46' W 074°00'2 6.1
2018-May-16 16:30N 40°45' W 074°01'1 1.1
2018-May-16 15:54N 40°44' W 074°02'0 1.2
2018-May-16 15:31N 40°44' W 074°01'3 6.9
2018-May-16 15:00N 40°41' W 074°04'1 2.2
2018-May-16 14:30N 40°41' W 074°03'5 9.5
2018-May-16 14:00N 40°45' W 074°01'3 5.7
2018-May-16 13:30N 40°43' W 074°02'2 4.8
2018-May-16 13:00N 40°41' W 074°04'0 0.1
2018-May-16 12:30N 40°41' W 074°04'0 0.0
2018-May-16 12:00N 40°41' W 074°04'0 0.0
2018-May-16 11:30N 40°41' W 074°04'0 0.0
2018-May-15 17:48N 40°41' W 074°04'1 4.3
2018-May-15 17:30N 40°41' W 074°03'2 3.1
2018-May-15 17:00N 40°42' W 074°02'2 4.9
2018-May-15 16:30N 40°40' W 074°01'1 0.3
2018-May-15 13:34N 40°40' W 074°00'0 1.2
2018-May-15 13:31N 40°40' W 074°00'3 6.2
2018-May-15 13:01N 40°41' W 074°04'0 0.0
2018-May-14 18:30N 40°41' W 074°04'2 3.5
2018-May-14 18:00N 40°40' W 074°03'2 0.9
2018-May-14 16:16N 40°40' W 074°00'0 1.0
2018-May-14 16:00N 40°40' W 074°01'5 9.6
2018-May-14 15:29N 40°35' W 074°01'610.6
2018-May-14 14:57N 40°34' W 073°54'6 3.4
2018-May-14 13:05N 40°36' W 074°02'1 8.6
2018-May-14 13:00N 40°36' W 074°02'510.0
2018-May-14 12:30N 40°41' W 074°04'0 0.0
2018-May-14 12:00N 40°41' W 074°04'  
Track history (hours):
 
Tides and Currents Weather Stations Pressure Air Temp Water Temp Dewpoint Dewpoint Depression Visibility Wind Speed Wind Dir Waves Ship Positions

Moritz

Last reported at 2018-May-22 18:47 UTC. Time now 2018-May-22 19:36 UTC.
Position N 40°41' W 074°04'.

Length 18 m.

Type: Ship. MMSI: 366999444.

Date/timePositionNaut miles runAvg speedWind from/ knotsBaromVisibWave heightAir tempDewpointWater temp
2018-May-22 18:47N 40°41' W 074°04'1 3.1
2018-May-22 18:30N 40°40' W 074°04'2 3.6
2018-May-22 18:00N 40°39' W 074°02'2 0.6
2018-May-22 15:08N 40°40' W 074°00'1 9.6
2018-May-22 15:01N 40°40' W 074°02'2 4.0
2018-May-22 14:30N 40°41' W 074°04'0 0.0
2018-May-22 14:00N 40°41' W 074°04'4 7.1
2018-May-22 13:25N 40°37' W 074°03'2 4.3
2018-May-22 13:00N 40°36' W 074°01'2 4.3
2018-May-22 12:30N 40°37' W 074°03'4 7.7
2018-May-22 12:01N 40°41' W 074°04'0 0.0
2018-May-22 11:30N 40°41' W 074°04'0 0.0
2018-May-21 17:19N 40°41' W 074°04'0 0.0
2018-May-21 17:00N 40°41' W 074°04'0 0.0
2018-May-21 16:30N 40°41' W 074°04'0 0.0
2018-May-21 15:26N 40°41' W 074°04'1 3.4
2018-May-21 15:00N 40°40' W 074°04'2 3.9
2018-May-21 14:24N 40°37' W 074°03'3 6.9
2018-May-21 14:00N 40°40' W 074°01'2 4.1
2018-May-21 13:29N 40°38' W 074°03'2 3.1
2018-May-21 12:58N 40°36' W 074°02'0 0.6
2018-May-21 12:27N 40°36' W 074°03'4 9.5
2018-May-21 12:00N 40°40' W 074°03'1 1.9
2018-May-21 11:31N 40°41' W 074°04'  
2018-May-17 18:50N 40°41' W 074°04'0 1.1
2018-May-17 18:30N 40°41' W 074°04'0 0.1
2018-May-17 18:00N 40°41' W 074°04'3 0.9
2018-May-17 14:58N 40°40' W 074°00'3 5.6
2018-May-17 14:30N 40°41' W 074°04'0 0.4
2018-May-17 14:00N 40°41' W 074°04'3 5.8
2018-May-17 13:29N 40°39' W 074°07'1 1.4
2018-May-17 12:58N 40°39' W 074°08'4 7.6
2018-May-17 12:30N 40°41' W 074°04'1 1.1
2018-May-17 12:00N 40°41' W 074°04'0 0.0
2018-May-17 11:30N 40°41' W 074°04'0 0.0
2018-May-17 11:00N 40°41' W 074°04'0 0.0
2018-May-16 18:36N 40°41' W 074°04'1 7.7
2018-May-16 18:30N 40°41' W 074°03'611.3
2018-May-16 17:59N 40°46' W 074°01'2 2.4
2018-May-16 17:04N 40°48' W 073°59'2 6.9
2018-May-16 16:48N 40°46' W 074°00'2 6.1
2018-May-16 16:30N 40°45' W 074°01'1 1.1
2018-May-16 15:54N 40°44' W 074°02'0 1.2
2018-May-16 15:31N 40°44' W 074°01'3 6.9
2018-May-16 15:00N 40°41' W 074°04'1 2.2
2018-May-16 14:30N 40°41' W 074°03'5 9.5
2018-May-16 14:00N 40°45' W 074°01'3 5.7
2018-May-16 13:30N 40°43' W 074°02'2 4.8
2018-May-16 13:00N 40°41' W 074°04'0 0.1
2018-May-16 12:30N 40°41' W 074°04'0 0.0
2018-May-16 12:00N 40°41' W 074°04'0 0.0
2018-May-16 11:30N 40°41' W 074°04'0 0.0
2018-May-15 17:48N 40°41' W 074°04'1 4.3
2018-May-15 17:30N 40°41' W 074°03'2 3.1
2018-May-15 17:00N 40°42' W 074°02'2 4.9
2018-May-15 16:30N 40°40' W 074°01'1 0.3
2018-May-15 13:34N 40°40' W 074°00'0 1.2
2018-May-15 13:31N 40°40' W 074°00'3 6.2
2018-May-15 13:01N 40°41' W 074°04'0 0.0
2018-May-14 18:30N 40°41' W 074°04'2 3.5
2018-May-14 18:00N 40°40' W 074°03'2 0.9
2018-May-14 16:16N 40°40' W 074°00'0 1.0
2018-May-14 16:00N 40°40' W 074°01'5 9.6
2018-May-14 15:29N 40°35' W 074°01'610.6
2018-May-14 14:57N 40°34' W 073°54'6 3.4
2018-May-14 13:05N 40°36' W 074°02'1 8.6
2018-May-14 13:00N 40°36' W 074°02'510.0
2018-May-14 12:30N 40°41' W 074°04'0 0.0
2018-May-14 12:00N 40°41' W 074°04'  

Dump ship's entire track history